createdAt,value
2023-01-27T00:01:51.624Z,7.87
2023-01-27T00:04:20.496Z,6.93
2023-01-27T00:06:49.396Z,8.00
2023-01-27T00:09:18.134Z,8.33
2023-01-27T00:12:04.123Z,7.47
2023-01-27T00:14:32.667Z,7.73
2023-01-27T00:17:02.496Z,8.93
2023-01-27T00:19:31.481Z,8.57
2023-01-27T00:22:17.820Z,8.27
2023-01-27T00:24:46.614Z,9.10
2023-01-27T00:27:15.228Z,8.73
2023-01-27T00:29:44.042Z,8.10
2023-01-27T00:32:31.527Z,8.63
2023-01-27T00:35:00.440Z,8.77
2023-01-27T00:37:29.283Z,9.67
2023-01-27T00:39:57.888Z,9.00
2023-01-27T00:42:27.323Z,8.33
2023-01-27T00:45:13.952Z,9.37
2023-01-27T00:47:44.921Z,7.87
2023-01-27T00:50:14.269Z,9.07
2023-01-27T00:52:44.566Z,9.40
2023-01-27T00:55:16.003Z,9.07
2023-01-27T00:57:45.809Z,8.67
2023-01-27T01:00:16.268Z,10.03
2023-01-27T01:02:46.690Z,9.43
2023-01-27T01:05:15.867Z,8.87
2023-01-27T01:07:44.420Z,9.97
2023-01-27T01:10:13.583Z,10.20
2023-01-27T01:12:42.758Z,9.57
2023-01-27T01:15:12.493Z,10.43
2023-01-27T01:17:41.021Z,9.33
2023-01-27T01:20:13.656Z,9.20
2023-01-27T01:22:43.018Z,9.47
2023-01-27T01:25:11.755Z,9.37
2023-01-27T01:27:40.472Z,10.23
2023-01-27T01:30:11.034Z,9.23
2023-01-27T01:32:40.065Z,10.27
2023-01-27T01:35:11.108Z,9.57
2023-01-27T01:37:42.059Z,9.33
2023-01-27T01:40:13.734Z,9.40
2023-01-27T01:42:58.920Z,9.97
2023-01-27T01:45:52.775Z,8.87
2023-01-27T01:48:33.996Z,9.87
2023-01-27T01:51:13.530Z,8.70
2023-01-27T01:53:48.559Z,9.20
2023-01-27T01:56:26.321Z,8.40
2023-01-27T01:59:02.294Z,9.20
2023-01-27T02:01:30.813Z,9.40
2023-01-27T02:04:06.450Z,9.53
2023-01-27T02:06:42.221Z,9.33
2023-01-27T02:09:14.168Z,9.13
2023-01-27T02:11:43.697Z,10.03
2023-01-27T02:14:17.459Z,9.50
2023-01-27T02:16:46.602Z,9.20
2023-01-27T02:19:26.086Z,9.17
2023-01-27T02:21:59.157Z,9.40
2023-01-27T02:24:39.259Z,9.80
2023-01-27T02:27:09.492Z,8.87
2023-01-27T02:29:38.257Z,9.60
2023-01-27T02:32:07.121Z,9.17
2023-01-27T02:34:39.351Z,9.40
2023-01-27T02:37:11.287Z,9.70
2023-01-27T02:39:46.513Z,9.20
2023-01-27T02:42:19.621Z,9.43
2023-01-27T02:44:48.376Z,9.77
2023-01-27T02:47:16.804Z,8.83
2023-01-27T02:49:45.683Z,8.87
2023-01-27T02:52:14.499Z,8.13
2023-01-27T02:54:43.527Z,8.73
2023-01-27T02:57:12.255Z,9.70
2023-01-27T02:59:55.496Z,7.60
2023-01-27T03:02:30.507Z,9.07
2023-01-27T03:05:00.211Z,8.83
2023-01-27T03:07:29.090Z,9.27
2023-01-27T03:09:58.332Z,9.00
2023-01-27T03:12:27.152Z,9.30
2023-01-27T03:15:15.126Z,8.97
2023-01-27T03:18:01.575Z,9.07
2023-01-27T03:20:30.070Z,10.00
2023-01-27T03:22:58.875Z,9.50
2023-01-27T03:25:30.065Z,8.93
2023-01-27T03:28:00.135Z,9.77
2023-01-27T03:30:44.834Z,9.33
2023-01-27T03:33:19.802Z,10.13
2023-01-27T03:35:49.335Z,9.50
2023-01-27T03:38:40.093Z,9.97
2023-01-27T03:41:26.264Z,10.23
2023-01-27T03:44:12.218Z,9.07
2023-01-27T03:46:42.558Z,8.87
2023-01-27T03:49:11.367Z,8.93
2023-01-27T03:51:40.187Z,8.60
2023-01-27T03:54:10.067Z,8.47
2023-01-27T03:56:38.739Z,8.97
2023-01-27T03:59:07.619Z,9.03
2023-01-27T04:01:36.451Z,8.83
2023-01-27T04:04:24.255Z,8.37
2023-01-27T04:06:58.229Z,8.13
2023-01-27T04:09:29.730Z,8.07
2023-01-27T04:12:01.475Z,7.63
2023-01-27T04:14:33.080Z,8.67
2023-01-27T04:17:05.300Z,8.20
2023-01-27T04:19:35.871Z,8.17
2023-01-27T04:22:06.012Z,8.33
2023-01-27T04:24:35.205Z,8.07
2023-01-27T04:27:06.944Z,8.03
2023-01-27T04:29:38.669Z,7.93
2023-01-27T04:32:08.348Z,8.13
2023-01-27T04:34:39.855Z,8.50
2023-01-27T04:37:10.709Z,7.97
2023-01-27T04:39:39.818Z,8.40
2023-01-27T04:42:08.896Z,7.77
2023-01-27T04:44:37.478Z,7.53
2023-01-27T04:47:06.328Z,7.83
2023-01-27T04:49:35.231Z,8.40
2023-01-27T04:52:05.424Z,8.17
2023-01-27T04:54:34.203Z,7.70
2023-01-27T04:57:03.990Z,7.33
2023-01-27T04:59:32.679Z,8.77
2023-01-27T05:02:01.199Z,8.00
2023-01-27T05:04:29.787Z,8.23
2023-01-27T05:06:58.630Z,7.73
2023-01-27T05:09:28.524Z,7.93
2023-01-27T05:11:57.311Z,8.47
2023-01-27T05:14:26.235Z,8.40
2023-01-27T05:16:54.831Z,8.43
2023-01-27T05:19:23.703Z,8.17
2023-01-27T05:21:52.543Z,8.70
2023-01-27T05:24:21.347Z,8.33
2023-01-27T05:26:51.397Z,7.47
2023-01-27T05:29:20.309Z,7.87
2023-01-27T05:31:49.150Z,8.63
2023-01-27T05:34:18.066Z,9.13
2023-01-27T05:36:46.616Z,8.30
2023-01-27T05:39:15.875Z,8.53
2023-01-27T05:41:44.349Z,8.10
2023-01-27T05:44:14.675Z,8.50
2023-01-27T05:46:43.635Z,9.23
2023-01-27T05:49:12.205Z,9.30
2023-01-27T05:51:41.907Z,8.37
2023-01-27T05:54:11.377Z,9.43
2023-01-27T05:56:40.840Z,9.53
2023-01-27T05:59:11.491Z,8.63
2023-01-27T06:19:51.874Z,8.10
2023-01-27T06:22:20.597Z,8.37
2023-01-27T06:24:48.938Z,8.87
2023-01-27T06:27:17.399Z,10.00
2023-01-27T06:29:45.885Z,9.57
2023-01-27T06:32:14.410Z,9.07
2023-01-27T06:34:42.703Z,9.87
2023-01-27T06:37:13.152Z,10.07
2023-01-27T06:39:41.669Z,10.07
2023-01-27T06:42:10.332Z,10.17
2023-01-27T06:44:38.789Z,9.47
2023-01-27T06:47:07.597Z,8.73
2023-01-27T06:49:36.204Z,10.33
2023-01-27T06:52:05.069Z,9.27
2023-01-27T06:54:35.117Z,10.03
2023-01-27T06:57:03.606Z,8.73
2023-01-27T06:59:32.193Z,8.73
2023-01-27T07:02:04.116Z,10.07
2023-01-27T07:04:32.805Z,9.23
2023-01-27T07:07:01.140Z,9.17
2023-01-27T07:09:30.756Z,8.83
2023-01-27T07:12:01.839Z,10.37
2023-01-27T07:14:30.194Z,9.93
2023-01-27T07:16:58.630Z,10.23
2023-01-27T07:19:27.053Z,10.30
2023-01-27T07:21:55.420Z,9.90
2023-01-27T07:24:24.074Z,9.87
2023-01-27T07:26:52.561Z,9.57
2023-01-27T07:47:10.950Z,10.10
2023-01-27T08:01:48.373Z,11.60
2023-01-27T08:04:18.367Z,10.77
2023-01-27T08:06:47.290Z,10.93
2023-01-27T08:21:34.969Z,11.07
2023-01-27T09:10:15.632Z,11.30
2023-01-27T09:12:45.523Z,11.60
2023-01-27T09:15:15.903Z,12.37
2023-01-27T09:17:44.391Z,11.70
2023-01-27T09:20:14.174Z,11.97
2023-01-27T09:22:43.280Z,12.40
2023-01-27T09:25:18.035Z,11.63
2023-01-27T09:27:46.392Z,12.10
2023-01-27T09:30:17.605Z,12.17
2023-01-27T09:32:45.978Z,11.50
2023-01-27T09:35:15.286Z,11.93
2023-01-27T09:37:50.916Z,11.43
2023-01-27T09:40:33.461Z,11.20
2023-01-27T09:43:39.153Z,10.93
2023-01-27T09:46:38.973Z,11.93
2023-01-27T09:49:40.620Z,11.83
2023-01-27T09:52:48.045Z,10.60
2023-01-27T09:55:31.878Z,11.53
2023-01-27T09:58:12.104Z,10.73
2023-01-27T10:00:57.179Z,11.07
2023-01-27T10:04:12.143Z,11.43
2023-01-27T10:06:59.186Z,11.33
2023-01-27T10:10:13.031Z,12.53
2023-01-27T10:13:06.656Z,10.50
2023-01-27T10:15:53.949Z,10.10
2023-01-27T10:18:45.415Z,10.57
2023-01-27T10:21:22.726Z,11.87
2023-01-27T10:24:04.076Z,10.90
2023-01-27T10:26:40.682Z,10.77
2023-01-27T10:29:18.974Z,11.27
2023-01-27T10:31:57.852Z,10.07
2023-01-27T10:34:35.579Z,10.83
2023-01-27T10:37:24.561Z,10.70
2023-01-27T10:40:02.518Z,10.53
2023-01-27T10:42:40.343Z,10.00
2023-01-27T10:45:27.714Z,10.47
2023-01-27T10:48:18.331Z,10.17
2023-01-27T10:50:53.455Z,11.67
2023-01-27T10:53:33.691Z,13.40
2023-01-27T10:56:10.771Z,11.83
2023-01-27T10:58:55.266Z,12.90
2023-01-27T11:01:33.002Z,13.83
2023-01-27T11:04:10.922Z,13.10
2023-01-27T11:06:44.002Z,13.03
2023-01-27T11:09:27.130Z,12.23
2023-01-27T11:12:02.891Z,12.87
2023-01-27T11:14:39.059Z,12.70
2023-01-27T11:17:21.492Z,12.60
2023-01-27T11:20:02.293Z,11.33
2023-01-27T11:22:38.842Z,12.70
2023-01-27T11:25:23.963Z,11.27
2023-01-27T11:28:20.860Z,12.50
2023-01-27T11:31:02.697Z,11.07
2023-01-27T11:33:51.821Z,10.03
2023-01-27T11:36:20.142Z,11.23
2023-01-27T11:38:48.792Z,10.27
2023-01-27T11:41:17.314Z,11.43
2023-01-27T11:43:46.436Z,10.57
2023-01-27T11:46:25.455Z,11.63
2023-01-27T11:48:59.881Z,10.47
2023-01-27T11:51:36.892Z,10.43
2023-01-27T11:54:14.475Z,11.03
2023-01-27T11:56:44.975Z,10.83
2023-01-27T11:59:22.937Z,11.40
2023-01-27T12:01:59.196Z,11.20
2023-01-27T12:04:51.842Z,10.90
2023-01-27T12:07:35.299Z,11.17
2023-01-27T12:10:04.376Z,11.23
2023-01-27T12:12:38.107Z,11.23
2023-01-27T12:15:15.647Z,11.67
2023-01-27T12:17:48.756Z,10.60
2023-01-27T12:20:34.040Z,10.93
2023-01-27T12:23:15.229Z,10.63
2023-01-27T12:25:51.952Z,10.77
2023-01-27T12:28:34.723Z,10.73
2023-01-27T12:31:11.366Z,10.20
2023-01-27T12:33:45.394Z,9.83
2023-01-27T12:36:19.193Z,10.23
2023-01-27T12:38:52.775Z,9.93
2023-01-27T12:41:28.259Z,9.27
2023-01-27T12:44:00.292Z,8.53
2023-01-27T12:46:30.615Z,9.17
2023-01-27T12:49:10.170Z,8.97
2023-01-27T12:51:45.685Z,8.90
2023-01-27T12:54:23.255Z,8.63
2023-01-27T12:56:53.629Z,8.97
2023-01-27T12:59:26.684Z,9.37
2023-01-27T13:02:16.761Z,10.10
2023-01-27T13:04:52.734Z,9.73
2023-01-27T13:07:28.819Z,8.63
2023-01-27T13:10:03.233Z,8.60
2023-01-27T13:12:48.107Z,8.40
2023-01-27T13:15:20.714Z,9.00
2023-01-27T13:17:51.432Z,8.80
2023-01-27T13:20:26.045Z,9.03
2023-01-27T13:23:04.306Z,8.33
2023-01-27T13:25:41.229Z,8.40
2023-01-27T13:28:18.515Z,7.77
2023-01-27T13:30:55.307Z,7.90
2023-01-27T13:33:37.950Z,9.30
2023-01-27T13:36:13.470Z,9.27
2023-01-27T13:38:53.631Z,8.63
2023-01-27T13:41:30.337Z,9.07
2023-01-27T13:44:06.831Z,10.13
2023-01-27T13:46:41.637Z,9.93
2023-01-27T13:49:29.938Z,9.63
2023-01-27T13:51:58.382Z,9.17
2023-01-27T13:54:30.146Z,13.50
2023-01-27T13:57:24.735Z,10.20
2023-01-27T14:00:08.891Z,24.30
2023-01-27T14:03:15.367Z,14.57
2023-01-27T14:06:04.072Z,14.73
2023-01-27T14:09:21.608Z,9.73
2023-01-27T14:12:03.411Z,15.83
2023-01-27T14:14:58.481Z,11.00
2023-01-27T14:17:48.212Z,8.93
2023-01-27T14:20:39.208Z,9.00
2023-01-27T14:23:29.161Z,8.80
2023-01-27T14:26:15.534Z,8.83
2023-01-27T14:29:03.612Z,10.73
2023-01-27T14:31:52.719Z,10.17
2023-01-27T14:34:43.978Z,11.17
2023-01-27T14:37:25.965Z,10.00
2023-01-27T14:40:14.526Z,10.33
2023-01-27T14:42:56.578Z,9.30
2023-01-27T14:45:33.541Z,10.27
2023-01-27T14:48:20.842Z,12.17
2023-01-27T14:51:07.054Z,11.53
2023-01-27T14:53:53.265Z,10.70
2023-01-27T14:56:38.500Z,11.23
2023-01-27T14:59:26.554Z,11.77
2023-01-27T15:02:08.425Z,11.57
2023-01-27T15:04:45.338Z,11.67
2023-01-27T15:07:23.233Z,12.23
2023-01-27T15:10:21.809Z,11.07
2023-01-27T15:13:30.465Z,11.00
2023-01-27T15:16:38.672Z,11.00
2023-01-27T15:19:44.440Z,10.40
2023-01-27T15:22:43.616Z,9.40
2023-01-27T15:25:33.618Z,10.17
2023-01-27T15:28:03.646Z,10.77
2023-01-27T15:30:34.996Z,11.10
2023-01-27T15:33:03.568Z,10.20
2023-01-27T15:35:41.671Z,11.97
2023-01-27T15:38:35.386Z,12.97
2023-01-27T15:41:10.884Z,23.73
2023-01-27T15:43:44.144Z,21.50
2023-01-27T15:46:32.548Z,15.97
2023-01-27T15:49:04.703Z,12.73
2023-01-27T15:51:38.019Z,12.20
2023-01-27T15:54:13.237Z,12.83
2023-01-27T15:56:50.408Z,11.37
2023-01-27T15:59:25.354Z,9.90
2023-01-27T16:02:18.099Z,9.30
2023-01-27T16:04:55.376Z,10.10
2023-01-27T16:07:33.266Z,15.97
2023-01-27T16:10:03.848Z,12.00
2023-01-27T16:12:42.466Z,12.97
2023-01-27T16:15:36.181Z,12.13
2023-01-27T16:18:27.972Z,11.47
2023-01-27T16:21:06.526Z,10.90
2023-01-27T16:23:50.089Z,10.13
2023-01-27T16:26:35.657Z,9.37
2023-01-27T16:29:37.267Z,9.17
2023-01-27T16:32:17.025Z,8.60
2023-01-27T16:34:50.706Z,8.87
2023-01-27T16:37:26.980Z,8.97
2023-01-27T16:40:07.094Z,10.03
2023-01-27T16:42:43.565Z,10.40
2023-01-27T16:45:23.067Z,9.63
2023-01-27T16:47:59.257Z,10.30
2023-01-27T16:50:37.444Z,8.73
2023-01-27T16:53:09.977Z,9.30
2023-01-27T16:55:43.969Z,9.10
2023-01-27T16:58:25.832Z,8.83
2023-01-27T17:00:59.050Z,8.23
2023-01-27T17:03:37.620Z,9.80
2023-01-27T17:06:10.104Z,10.30
2023-01-27T17:08:46.641Z,9.83
2023-01-27T17:11:29.754Z,9.90
2023-01-27T17:14:01.527Z,9.27
2023-01-27T17:16:36.363Z,8.80
2023-01-27T17:19:11.902Z,9.80
2023-01-27T17:21:44.778Z,9.90
2023-01-27T17:24:23.383Z,9.33
2023-01-27T17:27:08.637Z,8.77
2023-01-27T17:29:40.694Z,10.23
2023-01-27T17:32:22.350Z,10.67
2023-01-27T17:34:53.090Z,8.77
2023-01-27T17:37:24.420Z,9.83
2023-01-27T17:39:57.146Z,8.90
2023-01-27T17:42:35.180Z,9.90
2023-01-27T17:45:24.059Z,12.10
2023-01-27T17:47:52.893Z,9.97
2023-01-27T17:50:25.527Z,10.60
2023-01-27T17:52:57.105Z,11.67
2023-01-27T17:55:28.090Z,9.33
2023-01-27T17:58:05.937Z,8.97
2023-01-27T18:00:40.226Z,10.33
2023-01-27T18:03:16.319Z,9.33
2023-01-27T18:05:53.217Z,9.27
2023-01-27T18:08:23.642Z,9.40
2023-01-27T18:10:56.403Z,9.23
2023-01-27T18:13:42.192Z,9.83
2023-01-27T18:16:17.333Z,9.63
2023-01-27T18:18:47.173Z,10.43
2023-01-27T18:21:19.991Z,9.33
2023-01-27T18:23:51.339Z,9.67
2023-01-27T18:26:26.056Z,9.63
2023-01-27T18:29:01.717Z,8.80
2023-01-27T18:31:35.303Z,8.20
2023-01-27T18:34:23.078Z,9.30
2023-01-27T18:36:56.687Z,9.40
2023-01-27T18:39:34.820Z,8.97
2023-01-27T18:42:11.553Z,7.53
2023-01-27T18:44:41.307Z,7.90
2023-01-27T18:47:33.117Z,7.33
2023-01-27T18:50:15.039Z,8.93
2023-01-27T18:52:44.208Z,7.93
2023-01-27T18:55:18.824Z,8.27
2023-01-27T18:57:49.979Z,8.50
2023-01-27T19:00:31.203Z,8.63
2023-01-27T19:03:01.844Z,8.03
2023-01-27T19:05:33.950Z,8.67
2023-01-27T19:08:03.456Z,8.47
2023-01-27T19:10:35.125Z,8.77
2023-01-27T19:13:05.722Z,8.23
2023-01-27T19:15:39.768Z,9.27
2023-01-27T19:18:16.570Z,9.57
2023-01-27T19:20:45.198Z,9.10
2023-01-27T19:23:17.086Z,8.33
2023-01-27T19:25:49.606Z,9.70
2023-01-27T19:28:26.990Z,9.43
2023-01-27T19:30:56.962Z,12.33
2023-01-27T19:33:27.599Z,16.00
2023-01-27T19:35:58.770Z,29.00
2023-01-27T19:38:29.756Z,26.10
2023-01-27T19:40:58.404Z,11.63
2023-01-27T19:43:26.893Z,13.63
2023-01-27T19:45:56.660Z,13.10
2023-01-27T19:48:26.278Z,11.37
2023-01-27T19:50:54.629Z,10.20
2023-01-27T19:53:23.109Z,13.83
2023-01-27T19:55:52.106Z,15.60
2023-01-27T19:58:24.710Z,12.13
2023-01-27T20:00:56.879Z,10.53
2023-01-27T20:03:25.234Z,12.97
2023-01-27T20:05:53.982Z,10.97
2023-01-27T20:08:23.049Z,13.23
2023-01-27T20:10:52.690Z,13.73
2023-01-27T20:13:22.308Z,10.93
2023-01-27T20:15:54.065Z,10.33
2023-01-27T20:18:24.244Z,10.50
2023-01-27T20:20:52.630Z,11.47
2023-01-27T20:23:21.338Z,10.43
2023-01-27T20:25:49.845Z,11.07
2023-01-27T20:28:18.176Z,9.17
2023-01-27T20:30:46.911Z,10.23
2023-01-27T20:33:15.452Z,10.60
2023-01-27T20:35:45.075Z,9.70
2023-01-27T20:38:13.381Z,10.37
2023-01-27T20:40:41.773Z,10.70
2023-01-27T20:43:10.152Z,11.10
2023-01-27T20:45:39.127Z,10.13
2023-01-27T20:48:08.068Z,10.20
2023-01-27T20:50:39.505Z,10.40
2023-01-27T20:53:09.201Z,10.17
2023-01-27T20:55:37.650Z,9.80
2023-01-27T20:58:06.367Z,9.53
2023-01-27T21:00:34.765Z,8.97
2023-01-27T21:03:04.356Z,9.53
2023-01-27T21:05:34.383Z,10.10
2023-01-27T21:08:02.642Z,9.33
2023-01-27T21:10:32.670Z,11.00
2023-01-27T21:13:01.348Z,9.40
2023-01-27T21:15:29.595Z,9.20
2023-01-27T21:18:00.031Z,9.10
2023-01-27T21:20:31.871Z,9.77
2023-01-27T21:23:04.131Z,8.70
2023-01-27T21:25:41.070Z,9.00
2023-01-27T21:28:09.802Z,9.27
2023-01-27T21:30:38.262Z,9.90
2023-01-27T21:33:10.408Z,9.10
2023-01-27T21:35:39.454Z,9.00
2023-01-27T21:38:07.788Z,8.33
2023-01-27T21:40:40.715Z,8.43
2023-01-27T21:43:29.004Z,8.57
2023-01-27T21:46:00.103Z,8.67
2023-01-27T21:48:28.406Z,8.47
2023-01-27T21:50:56.921Z,9.23
2023-01-27T21:53:25.931Z,8.63
2023-01-27T21:55:55.536Z,9.10
2023-01-27T21:58:24.661Z,8.87
2023-01-27T22:00:53.253Z,8.53
2023-01-27T22:03:22.963Z,8.73
2023-01-27T22:05:51.232Z,8.90
2023-01-27T22:08:19.562Z,8.63
2023-01-27T22:10:47.894Z,9.10
2023-01-27T22:13:17.618Z,9.40
2023-01-27T22:15:51.292Z,9.33
2023-01-27T22:18:19.661Z,8.63
2023-01-27T22:20:47.968Z,9.50
2023-01-27T22:23:16.494Z,9.27
2023-01-27T22:25:50.057Z,9.00
2023-01-27T22:28:20.642Z,9.03
2023-01-27T22:30:49.025Z,8.67
2023-01-27T22:33:21.157Z,9.27
2023-01-27T22:35:49.521Z,8.70
2023-01-27T22:38:17.879Z,9.10
2023-01-27T22:40:46.399Z,8.80
2023-01-27T22:43:15.172Z,9.27
2023-01-27T22:45:45.527Z,9.83
2023-01-27T22:48:14.399Z,9.13
2023-01-27T22:50:43.178Z,8.90
2023-01-27T22:53:11.719Z,9.03
2023-01-27T22:55:40.301Z,10.03
2023-01-27T22:58:10.145Z,8.87
2023-01-27T23:00:39.163Z,8.40
2023-01-27T23:03:08.931Z,8.93
2023-01-27T23:05:37.563Z,8.77
2023-01-27T23:08:06.005Z,9.43
2023-01-27T23:10:35.017Z,10.37
2023-01-27T23:13:03.967Z,9.33
2023-01-27T23:15:32.586Z,9.13
2023-01-27T23:18:01.049Z,9.57
2023-01-27T23:20:30.706Z,9.67
2023-01-27T23:22:59.123Z,9.83
2023-01-27T23:25:27.945Z,8.93
2023-01-27T23:27:56.511Z,8.83
2023-01-27T23:30:25.101Z,8.67
2023-01-27T23:32:55.975Z,9.10
2023-01-27T23:35:24.292Z,7.93
2023-01-27T23:37:53.992Z,7.90
2023-01-27T23:40:22.357Z,7.73
2023-01-27T23:42:50.623Z,9.07
2023-01-27T23:45:19.102Z,7.20
2023-01-27T23:47:47.398Z,7.70
2023-01-27T23:50:16.169Z,8.10
2023-01-27T23:52:47.808Z,7.73
2023-01-27T23:55:17.793Z,7.40
2023-01-27T23:57:46.057Z,7.30
